Portada
METAR-TAF:

METAR-TAF

Aeropuertos :

Lydd, Inglaterra

latitud: 50-57N, longitud: 000-56E, altitud: 3 m

Observación

El informe se hizo hace 15 minutos, a las 02:50 UTC
Viento 5 kt del norte-noroeste
Temperatura 9°C
Humedad 100%
Presión 1010 hPa
Visibilidad: 3900 m
neblina

METAR: EGMD 030250Z AUTO 34005KT 3900 BR NCD 09/09 Q1010

Hora: 04:05 (03:05 UTC)

Pronóstico

El informe se hizo hace 57 minutos, a las 02:08 UTC
Pronóstico válido del 03 a las 03 UTC al 03 a las 12 UTC
Viento 2 kt con dirección variable
Visibilidad 10 km o más
sin nubes por debajo de 1500 m y sin presencia de cumulonimbus.
Evolucionando progresivamente
del 03 a las 07 UTC al 03 a las 10 UTC
Viento 10 kt del este
Probabilidad 30% :
Temporalmente
del 03 a las 09 UTC al 03 a las 12 UTC
Visibilidad: 8000 m
Cielo nuboso a una altura de 4500 ft
lluvia ligera

TAF: EGMD 030208Z 0303/0312 VRB02KT CAVOK BECMG 0307/0310 09010KT PROB30 TEMPO 0309/0312 8000 -RA BKN045

Observaciones y pronósticos meteorológicos de más de 4000 aeropuertos (mensajes METAR y TAF).

Los puntos amarillos y rojos representan las estaciones disponibles.

Ponga el ratón en el punto deseado para ver el nombre de la estación.

Haga clic para ver las observaciones y los pronósticos meteorológicos.

Para cambiar el mapa : haga clic en los botones verdes con una cruz de color negro para hacer un zoom, en el botón verde con un guión para alejar o en las flechas verdes para mapas adyacentes.


METAR-TAF: